Time;durP1;ratioP1;P1;durP2;ratioP2;P2;SDS_P1;SDS_P2;PMS_P1;PMS_P2;Temp;Humidity;BMP_temperature;BMP_pressure;BME280_temperature;BME280_humidity;BME280_pressure;Samples;Min_cycle;Max_cycle;Signal;HPM_P1;HPM_P2
2021/08/02 00:02:14;;;;;;;;;;;14.10;85.00;;;;;;5091978;28;19916;-63
2021/08/02 00:04:43;;;;;;;;;;;14.10;85.10;;;;;;5092471;28;19927;-63
2021/08/02 00:07:11;;;;;;;;;;;14.10;85.40;;;;;;5073433;28;19924;-63
2021/08/02 00:09:39;;;;;;;;;;;14.10;85.70;;;;;;5092391;28;19923;-63
2021/08/02 00:12:08;;;;;;;;;;;14.20;85.80;;;;;;5092337;28;19916;-63
2021/08/02 00:14:34;;;;;;;;;;;14.30;85.90;;;;;;5091830;28;19916;-63
2021/08/02 00:17:00;;;;;;;;;;;14.30;86.00;;;;;;5091858;28;19920;-64
2021/08/02 00:19:26;;;;;;;;;;;14.30;86.00;;;;;;5073728;28;19924;-63
2021/08/02 00:21:52;;;;;;;;;;;14.40;86.10;;;;;;5092045;28;19941;-63
2021/08/02 00:24:18;;;;;;;;;;;14.50;86.20;;;;;;5092095;28;19955;-63
2021/08/02 00:26:44;;;;;;;;;;;14.50;86.30;;;;;;5091129;28;20437;-65
2021/08/02 00:29:12;;;;;;;;;;;14.60;86.30;;;;;;5091111;28;22253;-63
2021/08/02 00:31:37;;;;;;;;;;;14.60;86.20;;;;;;5091815;28;20010;-63
2021/08/02 00:34:03;;;;;;;;;;;14.60;86.10;;;;;;5091444;28;19916;-60
2021/08/02 00:36:39;;;;;;;;;;;14.60;86.20;;;;;;5073856;28;19916;-60
2021/08/02 00:39:06;;;;;;;;;;;14.70;86.20;;;;;;5073197;28;19951;-60
2021/08/02 00:41:34;;;;;;;;;;;14.70;86.20;;;;;;5091875;28;20291;-60
2021/08/02 00:44:09;;;;;;;;;;;14.70;86.20;;;;;;5091696;28;19927;-60
2021/08/02 00:46:38;;;;;;;;;;;14.70;86.20;;;;;;5091322;28;19927;-60
2021/08/02 00:49:08;;;;;;;;;;;14.70;86.20;;;;;;5096424;22;20007;-60
2021/08/02 00:51:36;;;;;;;;;;;14.70;86.20;;;;;;5070159;28;19916;-62
2021/08/02 00:54:02;;;;;;;;;;;14.70;86.30;;;;;;5070714;28;19927;-62
2021/08/02 00:56:30;;;;;;;;;;;14.70;86.30;;;;;;5069810;28;19917;-62
2021/08/02 00:58:58;;;;;;;;;;;14.70;86.40;;;;;;5071370;28;20015;-62
2021/08/02 01:01:24;;;;;;;;;;;14.70;86.40;;;;;;5071049;28;20276;-62
2021/08/02 01:03:52;;;;;;;;;;;14.70;86.30;;;;;;5071349;28;20001;-62
2021/08/02 01:06:19;;;;;;;;;;;14.70;86.30;;;;;;5071689;28;20117;-62
2021/08/02 01:08:48;;;;;;;;;;;14.70;86.20;;;;;;5070521;28;19917;-63
2021/08/02 01:11:16;;;;;;;;;;;14.70;86.10;;;;;;5073856;28;19921;-62
2021/08/02 01:13:44;;;;;;;;;;;14.60;86.00;;;;;;5070971;28;19923;-61
2021/08/02 01:16:10;;;;;;;;;;;14.60;86.00;;;;;;5071270;28;20003;-61
2021/08/02 01:18:38;;;;;;;;;;;14.50;86.00;;;;;;5069930;28;19916;-62
2021/08/02 01:21:04;;;;;;;;;;;14.40;86.30;;;;;;5071160;28;19916;-62
2021/08/02 01:23:30;;;;;;;;;;;14.40;87.00;;;;;;5071464;28;20025;-62
2021/08/02 01:25:57;;;;;;;;;;;14.40;86.60;;;;;;5069852;28;19920;-61
2021/08/02 01:28:24;;;;;;;;;;;14.40;86.70;;;;;;5070670;28;19966;-62
2021/08/02 01:30:52;;;;;;;;;;;14.40;86.60;;;;;;5071261;28;19913;-61
2021/08/02 01:33:29;;;;;;;;;;;14.40;86.70;;;;;;5071325;28;19945;-62
2021/08/02 01:35:58;;;;;;;;;;;14.50;86.70;;;;;;5069869;28;19916;-63
2021/08/02 01:38:25;;;;;;;;;;;14.60;86.60;;;;;;5069639;28;19999;-62
2021/08/02 01:40:52;;;;;;;;;;;14.60;86.60;;;;;;5069326;28;20395;-62
2021/08/02 01:43:17;;;;;;;;;;;14.50;86.50;;;;;;5070226;28;19944;-61
2021/08/02 01:45:52;;;;;;;;;;;14.60;86.50;;;;;;5069157;28;19923;-63
2021/08/02 01:48:28;;;;;;;;;;;14.60;86.50;;;;;;5069448;28;19916;-62
2021/08/02 01:51:02;;;;;;;;;;;14.60;86.50;;;;;;5069055;28;19939;-62
2021/08/02 01:53:33;;;;;;;;;;;14.60;86.40;;;;;;5071029;28;19959;-62
2021/08/02 01:56:07;;;;;;;;;;;14.60;86.30;;;;;;5069802;28;19921;-62
2021/08/02 01:58:39;;;;;;;;;;;14.60;86.40;;;;;;5070544;28;19939;-62
2021/08/02 02:01:12;;;;;;;;;;;14.60;86.30;;;;;;5069280;28;20273;-62
2021/08/02 02:03:41;;;;;;;;;;;14.60;86.40;;;;;;5053324;28;19917;-62
2021/08/02 02:06:12;;;;;;;;;;;14.60;86.30;;;;;;5053552;28;19927;-62
2021/08/02 02:08:45;;;;;;;;;;;14.50;86.20;;;;;;5068711;28;20373;-62
2021/08/02 02:11:22;;;;;;;;;;;14.60;86.30;;;;;;5055150;28;20289;-62
2021/08/02 02:13:55;;;;;;;;;;;14.60;86.30;;;;;;5074197;28;19989;-62
2021/08/02 02:16:23;;;;;;;;;;;14.60;86.40;;;;;;5073486;28;19924;-62
2021/08/02 02:18:50;;;;;;;;;;;14.60;86.40;;;;;;5073730;28;19924;-62
2021/08/02 02:21:18;;;;;;;;;;;14.60;86.40;;;;;;5074390;28;20022;-61
2021/08/02 02:23:45;;;;;;;;;;;14.60;86.40;;;;;;5056690;28;20269;-62
2021/08/02 02:26:14;;;;;;;;;;;14.60;86.50;;;;;;5072577;28;19999;-62
2021/08/02 02:28:41;;;;;;;;;;;14.60;86.40;;;;;;5073944;28;19923;-62
2021/08/02 02:31:12;;;;;;;;;;;14.60;86.40;;;;;;5073793;28;20007;-62
2021/08/02 02:33:39;;;;;;;;;;;14.60;86.40;;;;;;5074244;28;19917;-61
2021/08/02 02:36:06;;;;;;;;;;;14.60;86.50;;;;;;5072807;28;20360;-62
2021/08/02 02:38:33;;;;;;;;;;;14.60;86.40;;;;;;5071988;28;19916;-61
2021/08/02 02:41:00;;;;;;;;;;;14.60;86.40;;;;;;5072669;28;19920;-62
2021/08/02 02:43:26;;;;;;;;;;;14.50;86.30;;;;;;5073708;28;19967;-62
2021/08/02 02:45:52;;;;;;;;;;;14.50;86.30;;;;;;5073904;28;19927;-62
2021/08/02 02:48:19;;;;;;;;;;;14.50;86.30;;;;;;5072099;28;19917;-62
2021/08/02 02:50:46;;;;;;;;;;;14.40;86.30;;;;;;5072220;28;20640;-62
2021/08/02 02:53:14;;;;;;;;;;;14.40;86.40;;;;;;5073815;28;19924;-61
2021/08/02 02:55:43;;;;;;;;;;;14.40;86.40;;;;;;5072354;28;19924;-62
2021/08/02 02:58:11;;;;;;;;;;;14.40;86.40;;;;;;5072686;28;19916;-62
2021/08/02 03:00:37;;;;;;;;;;;14.40;86.60;;;;;;5074782;28;20383;-62
2021/08/02 03:03:03;;;;;;;;;;;14.40;86.60;;;;;;5072195;28;19916;-62
2021/08/02 03:05:31;;;;;;;;;;;14.40;86.60;;;;;;5073269;28;19916;-62
2021/08/02 03:07:59;;;;;;;;;;;14.50;86.70;;;;;;5071416;28;20269;-62
2021/08/02 03:10:26;;;;;;;;;;;14.40;86.60;;;;;;5072094;28;19916;-62
2021/08/02 03:12:56;;;;;;;;;;;14.40;86.60;;;;;;5071706;28;19924;-62
2021/08/02 03:15:21;;;;;;;;;;;14.40;86.60;;;;;;5073375;28;19920;-62
2021/08/02 03:17:47;;;;;;;;;;;14.40;86.40;;;;;;5073042;28;19923;-61
2021/08/02 03:20:13;;;;;;;;;;;14.40;86.50;;;;;;5073033;28;19912;-63
2021/08/02 03:22:44;;;;;;;;;;;14.40;86.50;;;;;;5072640;28;19917;-61
2021/08/02 03:25:18;;;;;;;;;;;14.40;86.60;;;;;;5071574;28;19966;-61
2021/08/02 03:27:46;;;;;;;;;;;14.40;86.70;;;;;;5072433;28;19920;-62
2021/08/02 03:30:13;;;;;;;;;;;14.40;86.80;;;;;;5072801;28;19912;-62
2021/08/02 03:32:41;;;;;;;;;;;14.40;86.80;;;;;;5071448;28;19920;-61
2021/08/02 03:35:07;;;;;;;;;;;14.40;86.70;;;;;;5071606;28;19966;-61
2021/08/02 03:37:34;;;;;;;;;;;14.40;86.60;;;;;;5071271;28;19921;-61
2021/08/02 03:40:01;;;;;;;;;;;14.40;86.70;;;;;;5072132;28;19917;-65
2021/08/02 03:42:27;;;;;;;;;;;14.40;86.60;;;;;;5054928;28;19955;-66
2021/08/02 03:44:53;;;;;;;;;;;14.40;86.70;;;;;;5072324;28;19923;-65
2021/08/02 03:47:19;;;;;;;;;;;14.50;86.80;;;;;;5072465;28;19920;-66
2021/08/02 03:49:46;;;;;;;;;;;14.50;86.60;;;;;;5071039;28;19920;-66
2021/08/02 03:52:12;;;;;;;;;;;14.50;86.50;;;;;;5073532;28;20368;-67
2021/08/02 03:54:37;;;;;;;;;;;14.50;86.50;;;;;;5074842;28;19923;-67
2021/08/02 03:57:04;;;;;;;;;;;14.50;86.40;;;;;;5072362;28;19916;-67
2021/08/02 03:59:29;;;;;;;;;;;14.50;86.50;;;;;;5072089;28;19999;-67
2021/08/02 04:01:55;;;;;;;;;;;14.50;86.60;;;;;;5071372;28;19951;-61
2021/08/02 04:04:20;;;;;;;;;;;14.50;86.40;;;;;;5072076;28;19921;-61
2021/08/02 04:06:46;;;;;;;;;;;14.50;86.30;;;;;;5072070;28;19924;-63
2021/08/02 04:09:14;;;;;;;;;;;14.50;86.20;;;;;;5070890;28;19923;-62
2021/08/02 04:11:40;;;;;;;;;;;14.50;86.30;;;;;;5071802;28;19922;-62
2021/08/02 04:14:06;;;;;;;;;;;14.50;86.20;;;;;;5072069;28;19921;-64
2021/08/02 04:16:32;;;;;;;;;;;14.60;86.20;;;;;;5072155;28;19940;-62
2021/08/02 04:18:58;;;;;;;;;;;14.50;86.10;;;;;;5070101;28;19943;-61
2021/08/02 04:21:23;;;;;;;;;;;14.60;86.10;;;;;;5071997;28;20381;-62
2021/08/02 04:23:49;;;;;;;;;;;14.60;86.00;;;;;;5071691;28;19921;-62
2021/08/02 04:26:15;;;;;;;;;;;14.70;85.90;;;;;;5071903;28;19920;-61
2021/08/02 04:28:41;;;;;;;;;;;14.60;85.70;;;;;;5071739;28;19912;-62
2021/08/02 04:31:06;;;;;;;;;;;14.70;85.70;;;;;;5070067;28;19917;-62
2021/08/02 04:33:32;;;;;;;;;;;14.70;85.80;;;;;;5070625;28;20288;-61
2021/08/02 04:35:58;;;;;;;;;;;14.70;85.50;;;;;;5071549;28;19923;-63
2021/08/02 04:38:23;;;;;;;;;;;14.80;85.70;;;;;;5070407;28;19916;-61
2021/08/02 04:40:50;;;;;;;;;;;14.90;85.40;;;;;;5070597;28;19923;-62
2021/08/02 04:43:15;;;;;;;;;;;14.90;85.20;;;;;;5070096;28;20464;-62
2021/08/02 04:45:41;;;;;;;;;;;15.00;85.00;;;;;;5070350;28;19946;-62
2021/08/02 04:48:06;;;;;;;;;;;14.90;84.90;;;;;;5071285;28;20287;-62
2021/08/02 04:50:32;;;;;;;;;;;15.00;84.90;;;;;;5069952;28;19966;-62
2021/08/02 04:52:57;;;;;;;;;;;15.00;85.00;;;;;;5070433;28;20295;-62
2021/08/02 04:55:23;;;;;;;;;;;15.00;84.90;;;;;;5071188;28;19917;-62
2021/08/02 04:57:49;;;;;;;;;;;15.10;84.70;;;;;;5071360;28;19917;-63
2021/08/02 05:00:14;;;;;;;;;;;15.10;84.60;;;;;;5070496;28;19924;-62
2021/08/02 05:02:40;;;;;;;;;;;15.10;84.60;;;;;;5069822;28;20396;-65
2021/08/02 05:05:05;;;;;;;;;;;15.10;84.50;;;;;;5070518;28;19920;-62
2021/08/02 05:07:31;;;;;;;;;;;15.20;84.40;;;;;;5070082;28;19917;-62
2021/08/02 05:09:57;;;;;;;;;;;15.20;84.50;;;;;;5071094;28;19923;-63
2021/08/02 05:12:22;;;;;;;;;;;15.30;84.50;;;;;;5071311;28;20402;-63
2021/08/02 05:14:48;;;;;;;;;;;15.30;84.50;;;;;;5070347;28;19923;-62
2021/08/02 05:17:14;;;;;;;;;;;15.50;84.70;;;;;;5069275;28;19920;-62
2021/08/02 05:19:39;;;;;;;;;;;15.60;84.50;;;;;;5070107;28;19917;-62
2021/08/02 05:22:05;;;;;;;;;;;15.80;84.40;;;;;;5069949;28;20429;-62
2021/08/02 05:24:31;;;;;;;;;;;15.80;83.60;;;;;;5071200;28;20372;-62
2021/08/02 05:26:57;;;;;;;;;;;15.90;83.60;;;;;;5071041;28;19921;-62
2021/08/02 05:29:23;;;;;;;;;;;16.00;83.50;;;;;;5070838;28;19966;-62
2021/08/02 05:31:48;;;;;;;;;;;16.00;83.40;;;;;;5070798;28;19920;-62
2021/08/02 05:34:14;;;;;;;;;;;16.10;83.20;;;;;;5071236;28;19978;-62
2021/08/02 05:36:41;;;;;;;;;;;16.10;83.20;;;;;;5069221;28;19920;-62
2021/08/02 05:39:07;;;;;;;;;;;16.10;82.80;;;;;;5070944;28;19982;-60
2021/08/02 05:41:33;;;;;;;;;;;16.10;82.50;;;;;;5070749;28;19917;-62
2021/08/02 05:43:58;;;;;;;;;;;16.10;82.30;;;;;;5070993;28;19965;-60
2021/08/02 05:46:24;;;;;;;;;;;16.00;82.30;;;;;;5071690;28;20310;-59
2021/08/02 05:48:50;;;;;;;;;;;16.00;82.50;;;;;;5074015;28;19934;-60
2021/08/02 05:51:15;;;;;;;;;;;16.00;82.50;;;;;;5074793;28;20280;-59
2021/08/02 05:53:41;;;;;;;;;;;16.10;82.70;;;;;;5074665;28;19917;-60
2021/08/02 05:56:07;;;;;;;;;;;16.20;82.80;;;;;;5074170;28;20329;-60
2021/08/02 05:58:32;;;;;;;;;;;16.40;82.80;;;;;;5074197;28;19920;-60
2021/08/02 06:00:58;;;;;;;;;;;16.50;82.20;;;;;;5074470;28;19920;-60
2021/08/02 06:03:23;;;;;;;;;;;16.60;82.00;;;;;;5072613;28;20364;-60
2021/08/02 06:05:49;;;;;;;;;;;16.60;81.80;;;;;;5074309;28;19920;-60
2021/08/02 06:08:14;;;;;;;;;;;16.70;81.60;;;;;;5072335;28;19924;-60
2021/08/02 06:10:40;;;;;;;;;;;16.70;81.10;;;;;;5074350;28;19982;-60
2021/08/02 06:13:06;;;;;;;;;;;16.70;81.30;;;;;;5056071;28;19924;-60
2021/08/02 06:15:31;;;;;;;;;;;16.70;81.80;;;;;;5055656;28;19916;-60
2021/08/02 06:17:57;;;;;;;;;;;17.00;82.50;;;;;;5072594;28;19916;-60
2021/08/02 06:20:23;;;;;;;;;;;17.40;82.80;;;;;;5074271;28;19916;-60
2021/08/02 06:22:49;;;;;;;;;;;18.30;85.50;;;;;;5073789;28;20031;-60
2021/08/02 06:25:14;;;;;;;;;;;19.30;85.20;;;;;;5074127;28;20007;-60
2021/08/02 06:27:40;;;;;;;;;;;19.90;81.50;;;;;;5072163;28;19916;-60
2021/08/02 06:30:06;;;;;;;;;;;20.00;77.40;;;;;;5072609;28;19920;-61
2021/08/02 06:32:31;;;;;;;;;;;19.90;75.90;;;;;;5073856;28;19947;-60
2021/08/02 06:34:57;;;;;;;;;;;20.00;76.70;;;;;;5072320;28;20175;-60
2021/08/02 06:37:23;;;;;;;;;;;20.20;76.30;;;;;;5073513;28;19999;-60
2021/08/02 06:39:49;;;;;;;;;;;20.50;75.40;;;;;;5072459;28;19913;-60
2021/08/02 06:42:15;;;;;;;;;;;20.60;74.20;;;;;;5072346;28;20415;-60
2021/08/02 06:44:41;;;;;;;;;;;20.70;74.10;;;;;;5073658;28;20016;-60
2021/08/02 06:47:07;;;;;;;;;;;20.70;72.00;;;;;;5073067;28;20376;-61
2021/08/02 06:49:33;;;;;;;;;;;20.60;71.70;;;;;;5088714;22;19939;-62
2021/08/02 06:51:58;;;;;;;;;;;20.90;72.70;;;;;;5093743;28;19923;-62
2021/08/02 06:54:24;;;;;;;;;;;21.50;74.20;;;;;;5093265;28;20375;-62
2021/08/02 06:56:49;;;;;;;;;;;22.00;70.80;;;;;;5093437;28;20297;-62
2021/08/02 06:59:15;;;;;;;;;;;22.50;72.00;;;;;;5092169;28;20119;-61
2021/08/02 07:01:40;;;;;;;;;;;22.60;67.20;;;;;;5093327;28;19923;-61
2021/08/02 07:04:06;;;;;;;;;;;22.10;65.40;;;;;;5075497;28;19916;-61
2021/08/02 07:06:32;;;;;;;;;;;21.40;64.70;;;;;;5075255;28;20037;-61
2021/08/02 07:08:58;;;;;;;;;;;20.90;64.80;;;;;;5092915;28;19916;-60
2021/08/02 07:11:27;;;;;;;;;;;20.60;65.50;;;;;;5075334;28;20405;-61
2021/08/02 07:13:54;;;;;;;;;;;20.40;65.90;;;;;;5074504;28;19947;-61
2021/08/02 07:16:23;;;;;;;;;;;20.10;65.90;;;;;;5093478;28;19916;-68
2021/08/02 07:18:49;;;;;;;;;;;20.00;66.20;;;;;;5074249;28;19923;-67
2021/08/02 07:21:14;;;;;;;;;;;19.60;65.90;;;;;;5093167;28;20284;-67
2021/08/02 07:23:40;;;;;;;;;;;19.30;66.30;;;;;;5093222;28;19923;-68
2021/08/02 07:26:06;;;;;;;;;;;19.00;67.00;;;;;;5092486;28;19955;-67
2021/08/02 07:28:31;;;;;;;;;;;18.80;67.60;;;;;;5074293;28;19920;-68
2021/08/02 07:30:57;;;;;;;;;;;18.70;67.80;;;;;;5093031;28;19968;-67
2021/08/02 07:33:22;;;;;;;;;;;18.50;68.20;;;;;;5074510;28;19964;-68
2021/08/02 07:35:48;;;;;;;;;;;18.30;68.60;;;;;;5093020;28;19916;-67
2021/08/02 07:38:14;;;;;;;;;;;18.10;69.40;;;;;;5074565;28;19920;-67
2021/08/02 07:40:40;;;;;;;;;;;18.00;70.00;;;;;;5074140;28;19916;-67
2021/08/02 07:43:05;;;;;;;;;;;17.90;70.30;;;;;;5074501;28;20411;-67
2021/08/02 07:45:31;;;;;;;;;;;17.70;70.50;;;;;;5074044;28;20023;-68
2021/08/02 07:47:57;;;;;;;;;;;17.50;70.80;;;;;;5092447;28;19925;-65
2021/08/02 07:50:22;;;;;;;;;;;17.40;71.60;;;;;;5094225;28;19924;-66
2021/08/02 07:52:48;;;;;;;;;;;17.20;73.00;;;;;;5092151;28;20291;-67
2021/08/02 07:55:13;;;;;;;;;;;17.30;73.90;;;;;;5091646;28;19943;-68
2021/08/02 07:57:39;;;;;;;;;;;17.40;74.10;;;;;;5092288;28;19916;-68
2021/08/02 08:00:06;;;;;;;;;;;17.50;74.90;;;;;;5091845;28;19985;-68
2021/08/02 08:02:35;;;;;;;;;;;17.80;75.40;;;;;;5074030;28;20432;-68
2021/08/02 08:05:00;;;;;;;;;;;18.10;75.80;;;;;;5092263;28;19920;-69
2021/08/02 08:07:26;;;;;;;;;;;18.50;75.70;;;;;;5061279;28;19925;-68
2021/08/02 08:09:51;;;;;;;;;;;18.80;75.90;;;;;;5070292;28;19923;-69
2021/08/02 08:12:17;;;;;;;;;;;19.50;77.60;;;;;;5073778;28;19920;-69
2021/08/02 08:14:43;;;;;;;;;;;21.30;81.50;;;;;;5056609;28;19921;-68
2021/08/02 08:17:09;;;;;;;;;;;23.10;77.00;;;;;;5071257;28;19916;-62
2021/08/02 08:19:34;;;;;;;;;;;25.30;78.00;;;;;;5071244;28;19916;-62
2021/08/02 08:22:01;;;;;;;;;;;27.30;72.20;;;;;;5071857;28;20029;-63
2021/08/02 08:24:26;;;;;;;;;;;27.60;63.00;;;;;;5071931;28;19979;-62
2021/08/02 08:26:52;;;;;;;;;;;27.40;60.10;;;;;;5070878;28;20412;-63
2021/08/02 08:29:17;;;;;;;;;;;27.60;61.00;;;;;;5071293;28;20364;-63
2021/08/02 08:31:43;;;;;;;;;;;28.10;58.10;;;;;;5071114;28;19962;-62
2021/08/02 08:34:09;;;;;;;;;;;27.90;56.10;;;;;;5053746;28;20026;-63
2021/08/02 08:36:35;;;;;;;;;;;28.60;58.10;;;;;;5071286;28;20332;-62
2021/08/02 08:39:00;;;;;;;;;;;28.30;52.10;;;;;;5051189;28;20440;-63
2021/08/02 08:41:26;;;;;;;;;;;27.10;51.60;;;;;;5070061;28;20019;-62
2021/08/02 08:43:53;;;;;;;;;;;26.80;53.90;;;;;;5050610;28;20368;-62
2021/08/02 08:46:19;;;;;;;;;;;27.60;54.70;;;;;;5052549;28;20322;-63
2021/08/02 08:48:46;;;;;;;;;;;28.40;53.70;;;;;;5075282;28;19924;-62
2021/08/02 08:51:12;;;;;;;;;;;28.40;51.30;;;;;;5090383;28;19927;-62
2021/08/02 08:53:38;;;;;;;;;;;27.80;49.20;;;;;;5089694;28;19923;-62
2021/08/02 08:56:04;;;;;;;;;;;26.80;48.10;;;;;;5091376;28;19920;-61
2021/08/02 08:58:29;;;;;;;;;;;25.60;48.50;;;;;;5090807;28;19924;-62
2021/08/02 09:01:01;;;;;;;;;;;24.50;49.60;;;;;;5072926;28;19916;-61
2021/08/02 09:03:28;;;;;;;;;;;23.80;52.00;;;;;;5091445;28;20410;-61
2021/08/02 09:06:07;;;;;;;;;;;23.90;54.00;;;;;;5091081;28;19923;-62
2021/08/02 09:08:39;;;;;;;;;;;24.20;53.60;;;;;;5091053;28;19923;-61
2021/08/02 09:11:05;;;;;;;;;;;24.40;53.20;;;;;;5072922;28;20284;-61
2021/08/02 09:13:32;;;;;;;;;;;25.10;55.40;;;;;;5078685;28;19925;-62
2021/08/02 09:15:57;;;;;;;;;;;26.40;55.00;;;;;;5052800;28;19917;-62
2021/08/02 09:18:23;;;;;;;;;;;28.00;54.30;;;;;;5050303;28;20304;-62
2021/08/02 09:21:02;;;;;;;;;;;28.70;50.80;;;;;;5050944;28;19917;-62
2021/08/02 09:23:28;;;;;;;;;;;28.50;47.80;;;;;;5054923;28;20015;-62
2021/08/02 09:25:54;;;;;;;;;;;27.20;45.10;;;;;;5055012;28;20400;-62
2021/08/02 09:28:22;;;;;;;;;;;25.90;45.90;;;;;;5054157;28;20237;-61
2021/08/02 09:31:04;;;;;;;;;;;24.60;46.60;;;;;;5054685;28;20366;-61
2021/08/02 09:33:43;;;;;;;;;;;23.50;48.20;;;;;;5054355;28;19917;-61
2021/08/02 09:36:09;;;;;;;;;;;22.60;49.90;;;;;;5055042;28;19917;-62
2021/08/02 09:38:34;;;;;;;;;;;21.80;51.10;;;;;;5054048;28;19923;-62
2021/08/02 09:41:00;;;;;;;;;;;21.20;52.20;;;;;;5054953;28;20000;-61
2021/08/02 09:43:27;;;;;;;;;;;20.70;53.40;;;;;;5054925;28;19921;-61
2021/08/02 09:45:54;;;;;;;;;;;20.50;55.20;;;;;;5052444;28;19917;-62
2021/08/02 09:48:20;;;;;;;;;;;20.80;57.40;;;;;;5035446;28;19971;-62
2021/08/02 09:50:47;;;;;;;;;;;23.10;61.40;;;;;;5054197;28;19924;-62
2021/08/02 09:53:14;;;;;;;;;;;27.80;62.90;;;;;;5053845;28;19924;-62
2021/08/02 09:55:40;;;;;;;;;;;31.20;57.00;;;;;;5054230;28;19967;-62
2021/08/02 09:58:06;;;;;;;;;;;32.70;50.30;;;;;;5053667;28;19932;-63
2021/08/02 10:00:33;;;;;;;;;;;31.80;45.00;;;;;;5053817;28;19917;-63
2021/08/02 10:02:59;;;;;;;;;;;30.30;44.00;;;;;;5054245;28;19917;-62
2021/08/02 10:05:25;;;;;;;;;;;28.60;42.20;;;;;;5053651;28;20324;-62
2021/08/02 10:07:50;;;;;;;;;;;26.50;43.10;;;;;;5053963;28;20359;-62
2021/08/02 10:10:17;;;;;;;;;;;24.80;44.40;;;;;;5036167;28;19929;-61
2021/08/02 10:12:44;;;;;;;;;;;23.60;46.80;;;;;;5053802;28;20282;-61
2021/08/02 10:15:17;;;;;;;;;;;22.70;48.10;;;;;;5054030;28;19916;-61
2021/08/02 10:17:47;;;;;;;;;;;22.10;49.20;;;;;;5052874;28;20528;-61
2021/08/02 10:20:26;;;;;;;;;;;21.60;50.70;;;;;;5061750;28;19916;-61
2021/08/02 10:22:52;;;;;;;;;;;21.90;53.20;;;;;;5035523;28;20451;-63
2021/08/02 10:25:18;;;;;;;;;;;25.40;55.40;;;;;;5053889;28;19916;-64
2021/08/02 10:27:43;;;;;;;;;;;29.00;53.40;;;;;;5053598;28;20043;-62
2021/08/02 10:30:19;;;;;;;;;;;30.90;48.20;;;;;;5053287;28;19948;-62
2021/08/02 10:32:50;;;;;;;;;;;32.60;46.50;;;;;;5053644;28;19917;-63
2021/08/02 10:35:16;;;;;;;;;;;32.20;40.00;;;;;;5053349;28;20291;-63
2021/08/02 10:37:41;;;;;;;;;;;30.20;37.70;;;;;;5053373;28;19923;-63
2021/08/02 10:40:08;;;;;;;;;;;27.60;39.20;;;;;;5061448;28;20323;-66
2021/08/02 10:42:47;;;;;;;;;;;25.40;41.20;;;;;;5035716;28;20300;-62
2021/08/02 10:45:12;;;;;;;;;;;23.80;43.80;;;;;;5035428;28;20066;-63
2021/08/02 10:47:38;;;;;;;;;;;22.70;46.20;;;;;;5038662;28;20050;-62
2021/08/02 10:50:04;;;;;;;;;;;22.20;49.20;;;;;;5062846;28;19928;-62
2021/08/02 10:52:30;;;;;;;;;;;23.00;52.30;;;;;;5052821;28;19917;-63
2021/08/02 10:54:58;;;;;;;;;;;23.30;49.70;;;;;;5053487;28;19978;-62
2021/08/02 10:57:24;;;;;;;;;;;23.00;49.30;;;;;;5053097;28;19928;-63
2021/08/02 10:59:49;;;;;;;;;;;22.40;49.50;;;;;;5051695;28;19913;-63
2021/08/02 11:02:15;;;;;;;;;;;21.70;50.70;;;;;;5053172;28;20299;-64
2021/08/02 11:04:41;;;;;;;;;;;21.00;51.90;;;;;;5052971;28;19917;-66
2021/08/02 11:07:07;;;;;;;;;;;20.50;53.10;;;;;;5052710;28;20373;-63
2021/08/02 11:09:34;;;;;;;;;;;20.10;54.40;;;;;;5052994;28;19921;-62
2021/08/02 11:12:03;;;;;;;;;;;19.80;55.50;;;;;;5051031;28;19925;-63
2021/08/02 11:14:29;;;;;;;;;;;19.60;56.40;;;;;;5053151;28;19920;-62
2021/08/02 11:16:54;;;;;;;;;;;19.50;57.50;;;;;;5052765;28;20332;-62
2021/08/02 11:19:24;;;;;;;;;;;19.50;58.00;;;;;;5052514;28;20274;-63
2021/08/02 11:22:00;;;;;;;;;;;19.60;58.50;;;;;;5052943;28;19923;-62
2021/08/02 11:24:27;;;;;;;;;;;19.80;59.00;;;;;;5052447;28;19920;-62
2021/08/02 11:26:53;;;;;;;;;;;20.10;59.70;;;;;;5050934;28;20385;-62
2021/08/02 11:29:26;;;;;;;;;;;20.30;59.30;;;;;;5052744;28;19928;-62
2021/08/02 11:31:56;;;;;;;;;;;20.50;59.30;;;;;;5052420;28;20266;-66
2021/08/02 11:34:22;;;;;;;;;;;20.90;59.70;;;;;;5052675;28;19921;-67
2021/08/02 11:36:57;;;;;;;;;;;21.20;59.30;;;;;;5052010;28;19923;-67
2021/08/02 11:39:23;;;;;;;;;;;21.60;59.10;;;;;;5052723;28;20289;-67
2021/08/02 11:41:58;;;;;;;;;;;21.90;58.10;;;;;;5050854;28;19913;-66
2021/08/02 11:44:24;;;;;;;;;;;22.00;56.90;;;;;;5051721;28;19952;-65
2021/08/02 11:46:50;;;;;;;;;;;21.90;56.70;;;;;;5051304;28;20010;-66
2021/08/02 11:49:15;;;;;;;;;;;22.00;57.20;;;;;;5052228;28;20029;-65
2021/08/02 11:51:41;;;;;;;;;;;22.40;57.10;;;;;;5051183;28;19948;-65
2021/08/02 11:54:16;;;;;;;;;;;23.10;57.00;;;;;;5052090;28;19921;-65
2021/08/02 11:56:42;;;;;;;;;;;23.90;55.60;;;;;;5050954;28;19917;-66
2021/08/02 11:59:16;;;;;;;;;;;23.90;53.50;;;;;;5051992;28;19970;-66
2021/08/02 12:01:46;;;;;;;;;;;23.70;52.70;;;;;;5050700;28;19917;-66
2021/08/02 12:04:12;;;;;;;;;;;23.30;52.50;;;;;;5052130;28;20381;-66
2021/08/02 12:06:50;;;;;;;;;;;22.90;52.80;;;;;;5051145;28;19928;-67
2021/08/02 12:09:16;;;;;;;;;;;22.40;52.80;;;;;;5052083;28;19920;-67
2021/08/02 12:11:42;;;;;;;;;;;21.70;52.80;;;;;;5051673;28;20361;-67
2021/08/02 12:14:08;;;;;;;;;;;21.20;53.80;;;;;;5052220;28;19923;-67
2021/08/02 12:16:34;;;;;;;;;;;20.70;54.90;;;;;;5050202;28;19959;-67
2021/08/02 12:19:07;;;;;;;;;;;20.40;56.00;;;;;;5051401;28;19952;-66
2021/08/02 12:21:33;;;;;;;;;;;20.40;56.70;;;;;;5050608;28;19951;-66
2021/08/02 12:24:07;;;;;;;;;;;20.50;58.00;;;;;;5051254;28;19912;-66
2021/08/02 12:26:35;;;;;;;;;;;20.90;58.00;;;;;;5051648;28;20358;-66
2021/08/02 12:29:00;;;;;;;;;;;21.30;57.90;;;;;;5051632;28;19917;-65
2021/08/02 12:31:27;;;;;;;;;;;21.50;56.90;;;;;;5051478;28;19917;-67
2021/08/02 12:33:53;;;;;;;;;;;21.40;55.80;;;;;;5050548;28;19917;-66
2021/08/02 12:36:18;;;;;;;;;;;21.20;55.80;;;;;;5051193;28;20019;-66
2021/08/02 12:38:45;;;;;;;;;;;20.90;55.70;;;;;;5049817;28;19917;-66
2021/08/02 12:41:11;;;;;;;;;;;20.50;56.20;;;;;;5051597;28;19975;-66
2021/08/02 12:43:37;;;;;;;;;;;20.30;57.00;;;;;;5051153;28;20324;-67
2021/08/02 12:46:02;;;;;;;;;;;20.20;57.40;;;;;;5049981;28;19924;-66
2021/08/02 12:48:28;;;;;;;;;;;20.10;57.30;;;;;;5049444;28;19939;-67
2021/08/02 12:50:53;;;;;;;;;;;20.00;57.40;;;;;;5039690;22;19926;-69
2021/08/02 12:53:19;;;;;;;;;;;19.90;57.80;;;;;;5002802;28;19924;-70
2021/08/02 12:55:45;;;;;;;;;;;19.70;58.10;;;;;;4991032;28;19921;-70
2021/08/02 12:58:12;;;;;;;;;;;19.60;58.80;;;;;;4991489;28;20436;-69
2021/08/02 13:00:41;;;;;;;;;;;19.70;59.20;;;;;;4991673;28;19976;-70
2021/08/02 13:04:37;;;;;;;;;;;19.90;58.90;;;;;;5056562;27;20293;-69
2021/08/02 13:07:03;;;;;;;;;;;19.90;59.80;;;;;;5078678;28;19923;-70
2021/08/02 13:09:28;;;;;;;;;;;20.10;60.60;;;;;;5080595;28;19928;-70
2021/08/02 13:11:54;;;;;;;;;;;20.30;60.00;;;;;;5048147;28;19917;-70
2021/08/02 13:14:19;;;;;;;;;;;20.60;60.20;;;;;;5046604;28;20418;-70
2021/08/02 13:16:45;;;;;;;;;;;20.80;59.80;;;;;;5063588;28;19924;-69
2021/08/02 13:19:11;;;;;;;;;;;20.80;59.50;;;;;;5047954;28;20284;-70
2021/08/02 13:21:36;;;;;;;;;;;20.80;59.30;;;;;;5048685;28;20352;-70
2021/08/02 13:26:58;;;;;;;;;;;20.50;59.50;;;;;;5047840;28;19983;-70
2021/08/02 13:29:29;;;;;;;;;;;20.40;60.10;;;;;;5047884;28;19917;-70
2021/08/02 13:31:56;;;;;;;;;;;20.50;61.00;;;;;;5048365;28;19917;-70
2021/08/02 13:34:22;;;;;;;;;;;20.80;61.30;;;;;;5048282;28;20000;-70
2021/08/02 13:36:47;;;;;;;;;;;21.00;60.90;;;;;;5047710;28;20020;-70
2021/08/02 13:39:13;;;;;;;;;;;21.00;60.30;;;;;;5047955;28;20420;-70
2021/08/02 13:41:39;;;;;;;;;;;21.00;60.50;;;;;;5047051;28;20019;-70
2021/08/02 13:44:05;;;;;;;;;;;21.20;60.90;;;;;;5047486;28;19933;-70
2021/08/02 13:46:30;;;;;;;;;;;21.50;60.50;;;;;;5046775;28;19924;-70
2021/08/02 13:49:05;;;;;;;;;;;21.60;59.70;;;;;;5046102;28;19917;-69
2021/08/02 13:51:30;;;;;;;;;;;21.60;59.50;;;;;;5047912;28;19924;-62
2021/08/02 13:53:56;;;;;;;;;;;21.50;59.50;;;;;;5047711;28;19936;-63
2021/08/02 13:56:22;;;;;;;;;;;21.40;59.40;;;;;;5047419;28;20004;-63
2021/08/02 13:58:47;;;;;;;;;;;21.20;59.30;;;;;;5047512;28;19984;-64
2021/08/02 14:01:13;;;;;;;;;;;21.10;59.90;;;;;;5047618;28;20361;-63
2021/08/02 14:03:38;;;;;;;;;;;21.10;60.40;;;;;;5058439;28;20045;-63
2021/08/02 14:06:04;;;;;;;;;;;21.10;60.70;;;;;;5065194;28;19921;-64
2021/08/02 14:08:30;;;;;;;;;;;21.20;60.60;;;;;;5065275;28;20012;-64
2021/08/02 14:10:57;;;;;;;;;;;21.30;60.50;;;;;;5065953;28;20391;-63
2021/08/02 14:13:23;;;;;;;;;;;21.30;60.00;;;;;;5065949;28;19925;-63
2021/08/02 14:15:50;;;;;;;;;;;21.10;59.80;;;;;;5054816;28;19917;-62
2021/08/02 14:18:18;;;;;;;;;;;20.90;60.40;;;;;;5052804;28;19917;-64
2021/08/02 14:20:44;;;;;;;;;;;20.90;60.60;;;;;;5053242;28;20372;-62